Airfield :
LOGIN :

Register | Disclaimer

   EN    FR    IT 

 










Legend :    VFR   Marginal VFR   IFR   Intensive IFR   Very Intensive IFR
Visi :
Ceiling :
>= 8 km
>= 3000ft
5 to 8 km
1000 to 3000 ft
1500m to 5 km
500 to 1000 ft
800 to 1500m
200 to 500 ft
< 800m
< 200 ft
Symbols :   Thunderstorms  Fog  Heavy snow  Heavy precipitations  Wind > 20 kt
SIGMETs :     Misc.  Thunderstorms  Icing  Turbulence  Mountain Waves  Volcanic Ashes






- Airport Elevation : 306 ft
- IATA code : EMA


EGNX - Nottingham East Midlands

CURRENT METAR :
  • 291850Z 24010KT 9999 BKN020 14/11 Q1007

EXPIRED METARs :
  • 291820Z 24012KT 9999 BKN020 14/11 Q1007
  • 291750Z 24011KT 9999 BKN021 14/11 Q1007
  • 291720Z 24011KT 9999 BKN021 14/11 Q1007
  • 291650Z 24011KT 9999 BKN019 BKN030 14/11 Q1006
  • 291620Z 25011KT 9999 BKN014 BKN023 13/11 Q1006

TAF TAF EGNX
Valid from the 29 at 18:00 until the 30 at 18:00 UTC


291700Z 2918/3018 23015KT 9999 SCT014 BKN030
PROB40
TEMPO 2918/2924 6000 -RADZ BKN014
PROB30
TEMPO 2918/3009 24018G28KT
TEMPO 3000/3013 6000 -RADZ BKN011
PROB40
TEMPO 3000/3013 4000 RADZ BKN008
BECMG 3008/3011 VRB03KT
PROB30
TEMPO 3013/3018 6000 -RADZ BKN014
ATIS : +44 1332 852 852 (ext 3201)



MET'MAP, your aeronautical weather chart ! - Copyright ORBIFLY December 2007 - Disclaimer

ORBIFLY MET'MAP TEAM :

Programming & Development : Alexandra Zaïnal
Concept & original design : Baudouin d'Aumeries
Assistance for programming : Marc-Olivier Méhu
Technical & hardware support : Manuel Goepfert

Contact : metmap@orbifly.com




SOURCES & CREDITS :

   NOAA